Map

Track Data

SID SEASON NUMBER BASIN SUBBASIN NAME ISO_TIME NATURE LAT LON WMO_WIND WMO_PRES WMO_AGENCY TRACK_TYPE DIST2LAND LANDFALL IFLAG USA_AGENCY USA_ATCF_ID USA_LAT USA_LON USA_RECORD USA_STATUS USA_WIND USA_PRES USA_SSHS USA_R34_NE USA_R34_SE USA_R34_SW USA_R34_NW USA_R50_NE USA_R50_SE USA_R50_SW USA_R50_NW USA_R64_NE USA_R64_SE USA_R64_SW USA_R64_NW USA_POCI USA_ROCI USA_RMW USA_EYE TOKYO_LAT TOKYO_LON TOKYO_GRADE TOKYO_WIND TOKYO_PRES TOKYO_R50_DIR TOKYO_R50_LONG TOKYO_R50_SHORT TOKYO_R30_DIR TOKYO_R30_LONG TOKYO_R30_SHORT TOKYO_LAND CMA_LAT CMA_LON CMA_CAT CMA_WIND CMA_PRES HKO_LAT HKO_LON HKO_CAT HKO_WIND HKO_PRES NEWDELHI_LAT NEWDELHI_LON NEWDELHI_GRADE NEWDELHI_WIND NEWDELHI_PRES NEWDELHI_CI NEWDELHI_DP NEWDELHI_POCI REUNION_LAT REUNION_LON REUNION_TYPE REUNION_WIND REUNION_PRES REUNION_TNUM REUNION_CI REUNION_RMW REUNION_R34_NE REUNION_R34_SE REUNION_R34_SW REUNION_R34_NW REUNION_R50_NE REUNION_R50_SE REUNION_R50_SW REUNION_R50_NW REUNION_R64_NE REUNION_R64_SE REUNION_R64_SW REUNION_R64_NW BOM_LAT BOM_LON BOM_TYPE BOM_WIND BOM_PRES BOM_TNUM BOM_CI BOM_RMW BOM_R34_NE BOM_R34_SE BOM_R34_SW BOM_R34_NW BOM_R50_NE BOM_R50_SE BOM_R50_SW BOM_R50_NW BOM_R64_NE BOM_R64_SE BOM_R64_SW BOM_R64_NW BOM_ROCI BOM_POCI BOM_EYE BOM_POS_METHOD BOM_PRES_METHOD NADI_LAT NADI_LON NADI_CAT NADI_WIND NADI_PRES WELLINGTON_LAT WELLINGTON_LON WELLINGTON_WIND WELLINGTON_PRES DS824_LAT DS824_LON DS824_STAGE DS824_WIND DS824_PRES TD9636_LAT TD9636_LON TD9636_STAGE TD9636_WIND TD9636_PRES TD9635_LAT TD9635_LON TD9635_WIND TD9635_PRES TD9635_ROCI NEUMANN_LAT NEUMANN_LON NEUMANN_CLASS NEUMANN_WIND NEUMANN_PRES MLC_LAT MLC_LON MLC_CLASS MLC_WIND MLC_PRES USA_GUST BOM_GUST BOM_GUST_PER REUNION_GUST REUNION_GUST_PER USA_SEAHGT USA_SEARAD_NE USA_SEARAD_SE USA_SEARAD_SW USA_SEARAD_NW STORM_SPEED STORM_DIR
1944071S18115 1944 20 SI WA NOT_NAMED 1944-03-11 06:00:00 NR -18.0000 115.100 main 335 326 _____O________ -1 -18.0000 115.100 99 9.90000 3 218
1944071S18115 1944 20 SI WA NOT_NAMED 1944-03-11 09:00:00 NR -18.1034 115.021 main 331 322 _____P________ -1 -18.1034 115.021 99 3 216
1944071S18115 1944 20 SI WA NOT_NAMED 1944-03-11 12:00:00 NR -18.2088 114.939 main 328 319 _____P________ -1 -18.2088 114.939 99 3 218
1944071S18115 1944 20 SI WA NOT_NAMED 1944-03-11 15:00:00 NR -18.3184 114.850 main 319 315 _____P________ -1 -18.3184 114.850 99 3 218
1944071S18115 1944 20 SI WA NOT_NAMED 1944-03-11 18:00:00 NR -18.4341 114.752 main 315 306 _____P________ -1 -18.4341 114.752 99 3 220
1944071S18115 1944 20 SI WA NOT_NAMED 1944-03-11 21:00:00 NR -18.5581 114.641 main 306 297 _____P________ -1 -18.5581 114.641 99 3 221
1944071S18115 1944 20 SI WA NOT_NAMED 1944-03-12 00:00:00 NR -18.6924 114.514 main 303 294 _____P________ -1 -18.6924 114.514 99 4 223
1944071S18115 1944 20 SI WA NOT_NAMED 1944-03-12 03:00:00 NR -18.8390 114.368 main 301 291 _____P________ -1 -18.8390 114.368 99 4 224
1944071S18115 1944 20 SI WA NOT_NAMED 1944-03-12 06:00:00 NR -19.0000 114.200 main 294 290 _____O________ -1 -19.0000 114.200 99 9.90000 5 225
1944071S18115 1944 20 SI WA NOT_NAMED 1944-03-12 09:00:00 NR -19.1774 114.008 main 290 280 _____P________ -1 -19.1774 114.008 99 5 226
1944071S18115 1944 20 SI WA NOT_NAMED 1944-03-12 12:00:00 NR -19.3738 113.796 main 280 260 _____P________ -1 -19.3738 113.796 99 6 225
1944071S18115 1944 20 SI WA NOT_NAMED 1944-03-12 15:00:00 NR -19.5918 113.573 main 260 242 _____P________ -1 -19.5918 113.573 99 6 223
1944071S18115 1944 20 SI WA NOT_NAMED 1944-03-12 18:00:00 NR -19.8340 113.343 main 245 217 _____P________ -1 -19.8340 113.343 99 7 220
1944071S18115 1944 20 SI WA NOT_NAMED 1944-03-12 21:00:00 NR -20.1032 113.114 main 221 202 _____P________ -1 -20.1032 113.114 99 7 217
1944071S18115 1944 20 SI WA NOT_NAMED 1944-03-13 00:00:00 NR -20.4020 112.893 main 202 190 _____P________ -1 -20.4020 112.893 99 8 213
1944071S18115 1944 20 SI WA NOT_NAMED 1944-03-13 03:00:00 NR -20.7334 112.686 main 190 176 _____P________ -1 -20.7334 112.686 99 8 208
1944071S18115 1944 20 SI WA NOT_NAMED 1944-03-13 06:00:00 NR -21.1000 112.500 main 179 173 _____O________ -1 -21.1000 112.500 99 9.90000 9 206
1944071S18115 1944 20 SI WA NOT_NAMED 1944-03-13 09:00:00 NR -21.4996 112.293 main 178 169 _____P________ -1 -21.4996 112.293 99 9 204
1944071S18115 1944 20 SI WA NOT_NAMED 1944-03-13 12:00:00 NR -21.9367 112.096 main 173 167 _____P________ -1 -21.9367 112.096 99 10 201
1944071S18115 1944 20 SI WA NOT_NAMED 1944-03-13 15:00:00 NR -22.4051 111.920 main 176 174 _____P________ -1 -22.4051 111.920 99 10 197
1944071S18115 1944 20 SI WA NOT_NAMED 1944-03-13 18:00:00 NR -22.8985 111.774 main 187 187 _____P________ -1 -22.8985 111.774 99 10 193
1944071S18115 1944 20 SI WA NOT_NAMED 1944-03-13 21:00:00 NR -23.4108 111.669 main 191 188 _____P________ -1 -23.4108 111.669 99 11 188
1944071S18115 1944 20 SI WA NOT_NAMED 1944-03-14 00:00:00 NR -23.9359 111.614 main 190 182 _____P________ -1 -23.9359 111.614 99 11 183
1944071S18115 1944 20 SI WA NOT_NAMED 1944-03-14 03:00:00 NR -24.4677 111.621 main 182 177 _____P________ -1 -24.4677 111.621 99 11 176
1944071S18115 1944 20 SI WA NOT_NAMED 1944-03-14 06:00:00 NR -25.0000 111.700 main 184 161 _____O________ -1 -25.0000 111.700 99 9.90000 11 168
1944071S18115 1944 20 SI WA NOT_NAMED 1944-03-14 09:00:00 NR -25.5277 111.859 main 151 120 _____P________ -1 -25.5277 111.859 99 11 161
1944071S18115 1944 20 SI WA NOT_NAMED 1944-03-14 12:00:00 NR -26.0502 112.091 main 119 92 _____P________ -1 -26.0502 112.091 99 11 155
1944071S18115 1944 20 SI WA NOT_NAMED 1944-03-14 15:00:00 NR -26.5681 112.388 main 95 89 _____P________ -1 -26.5681 112.388 99 12 151
1944071S18115 1944 20 SI WA NOT_NAMED 1944-03-14 18:00:00 NR -27.0816 112.740 main 99 88 _____P________ -1 -27.0816 112.740 99 12 147
1944071S18115 1944 20 SI WA NOT_NAMED 1944-03-14 21:00:00 NR -27.5911 113.137 main 94 62 _____P________ -1 -27.5911 113.137 99 13 144
1944071S18115 1944 20 SI WA NOT_NAMED 1944-03-15 00:00:00 NR -28.0970 113.570 main 58 44 _____P________ -1 -28.0970 113.570 99 13 142
1944071S18115 1944 20 SI WA NOT_NAMED 1944-03-15 03:00:00 NR -28.5998 114.027 main 50 29 _____P________ -1 -28.5998 114.027 99 13 141
1944071S18115 1944 20 SI WA NOT_NAMED 1944-03-15 06:00:00 NR -29.1000 114.500 main 29 _____O________ -1 -29.1000 114.500 99 9.90000 13 140

About IBTrACS Database

This database is a web-friendly format of International Best Track Archive for Climate Stewardship (IBTrACS), a global best track data archive curated by NOAA dating back to 1842.

Updated: 2021-12-01